createdAt,value
2023-10-18T00:02:18.073Z,53.65
2023-10-18T00:04:46.017Z,55.26
2023-10-18T00:07:14.879Z,54.13
2023-10-18T00:09:52.257Z,54.23
2023-10-18T00:12:20.136Z,55.06
2023-10-18T00:14:51.091Z,54.74
2023-10-18T00:17:18.731Z,54.52
2023-10-18T00:19:47.248Z,56.99
2023-10-18T00:22:14.807Z,53.42
2023-10-18T00:24:43.250Z,53.42
2023-10-18T00:27:10.788Z,53.38
2023-10-18T00:29:38.571Z,53.31
2023-10-18T00:32:06.768Z,52.50
2023-10-18T00:34:34.314Z,53.70
2023-10-18T00:37:02.257Z,53.71
2023-10-18T00:39:30.843Z,53.46
2023-10-18T00:42:18.457Z,54.11
2023-10-18T00:44:56.231Z,53.28
2023-10-18T00:47:25.170Z,53.65
2023-10-18T00:49:54.019Z,53.86
2023-10-18T00:52:24.847Z,54.10
2023-10-18T00:54:52.469Z,55.03
2023-10-18T00:57:39.165Z,54.89
2023-10-18T01:00:20.535Z,54.64
2023-10-18T01:02:51.236Z,55.55
2023-10-18T01:05:21.988Z,55.82
2023-10-18T01:07:54.442Z,55.39
2023-10-18T01:10:25.273Z,57.41
2023-10-18T01:12:55.528Z,55.40
2023-10-18T01:15:24.358Z,56.50
2023-10-18T01:17:52.010Z,54.29
2023-10-18T01:20:39.198Z,53.55
2023-10-18T01:23:08.601Z,54.84
2023-10-18T01:25:37.142Z,54.22
2023-10-18T01:28:06.786Z,53.87
2023-10-18T01:30:34.677Z,53.61
2023-10-18T01:33:02.781Z,55.35
2023-10-18T01:35:32.633Z,55.82
2023-10-18T01:38:02.052Z,55.80
2023-10-18T01:40:29.613Z,55.91
2023-10-18T01:42:58.068Z,55.52
2023-10-18T01:45:36.847Z,55.42
2023-10-18T01:48:11.151Z,55.92
2023-10-18T01:50:40.567Z,56.18
2023-10-18T01:53:17.143Z,56.20
2023-10-18T01:55:52.523Z,57.03
2023-10-18T01:58:26.599Z,58.09
2023-10-18T02:00:57.913Z,58.85
2023-10-18T02:03:25.792Z,55.65
2023-10-18T02:05:53.493Z,54.85
2023-10-18T02:08:22.166Z,59.62
2023-10-18T02:10:51.615Z,57.06
2023-10-18T02:13:20.653Z,58.81
2023-10-18T02:15:49.687Z,57.04
2023-10-18T02:18:18.130Z,57.10
2023-10-18T02:20:53.101Z,55.72
2023-10-18T02:23:23.141Z,55.80
2023-10-18T02:25:51.250Z,55.36
2023-10-18T02:28:29.099Z,54.56
2023-10-18T02:30:59.194Z,55.61
2023-10-18T02:33:42.183Z,54.78
2023-10-18T02:36:21.913Z,54.68
2023-10-18T02:38:54.085Z,57.13
2023-10-18T02:41:30.923Z,56.54
2023-10-18T02:43:59.907Z,56.10
2023-10-18T02:46:28.192Z,57.15
2023-10-18T02:48:58.510Z,55.39
2023-10-18T02:51:28.075Z,54.75
2023-10-18T02:54:20.189Z,53.92
2023-10-18T02:57:00.460Z,54.99
2023-10-18T02:59:29.675Z,55.51
2023-10-18T03:01:58.589Z,55.08
2023-10-18T03:04:28.938Z,55.65
2023-10-18T03:06:57.222Z,54.33
2023-10-18T03:09:28.897Z,54.40
2023-10-18T03:11:58.239Z,55.30
2023-10-18T03:14:41.377Z,54.71
2023-10-18T03:17:35.715Z,53.85
2023-10-18T03:20:20.918Z,55.18
2023-10-18T03:22:50.309Z,53.57
2023-10-18T03:25:18.716Z,53.80
2023-10-18T03:27:52.700Z,53.92
2023-10-18T03:30:20.406Z,55.96
2023-10-18T03:32:55.718Z,54.00
2023-10-18T03:35:23.765Z,54.16
2023-10-18T03:37:51.464Z,53.81
2023-10-18T03:40:25.390Z,55.88
2023-10-18T03:42:56.254Z,55.81
2023-10-18T03:45:29.180Z,55.53
2023-10-18T03:48:00.716Z,55.15
2023-10-18T03:50:41.817Z,55.75
2023-10-18T03:53:14.418Z,55.63
2023-10-18T03:55:43.867Z,55.54
2023-10-18T03:58:23.713Z,54.96
2023-10-18T04:00:58.087Z,54.30
2023-10-18T04:03:31.146Z,54.79
2023-10-18T04:06:06.987Z,54.67
2023-10-18T04:08:35.774Z,54.52
2023-10-18T04:11:03.474Z,54.68
2023-10-18T04:13:33.694Z,54.01
2023-10-18T04:16:04.982Z,53.59
2023-10-18T04:18:36.211Z,54.32
2023-10-18T04:21:06.494Z,54.33
2023-10-18T04:23:35.734Z,55.14
2023-10-18T04:26:04.965Z,54.88
2023-10-18T04:28:38.721Z,54.82
2023-10-18T04:31:12.639Z,57.14
2023-10-18T04:33:44.286Z,55.42
2023-10-18T04:36:13.914Z,55.94
2023-10-18T04:38:46.078Z,55.09
2023-10-18T04:41:24.548Z,54.31
2023-10-18T04:44:00.814Z,54.19
2023-10-18T04:46:30.828Z,55.22
2023-10-18T04:49:01.581Z,55.95
2023-10-18T04:51:50.000Z,54.41
2023-10-18T04:54:19.022Z,56.06
2023-10-18T04:56:48.190Z,54.78
2023-10-18T04:59:19.941Z,54.40
2023-10-18T05:01:55.539Z,55.59
2023-10-18T05:04:34.386Z,55.71
2023-10-18T05:07:10.985Z,57.28
2023-10-18T05:09:45.420Z,55.11
2023-10-18T05:12:16.308Z,55.34
2023-10-18T05:17:25.311Z,54.81
2023-10-18T05:19:57.356Z,54.09
2023-10-18T05:22:26.860Z,55.95
2023-10-18T05:25:16.400Z,55.28
2023-10-18T05:28:01.084Z,55.14
2023-10-18T05:30:49.424Z,54.50
2023-10-18T05:33:30.872Z,55.39
2023-10-18T05:36:23.398Z,54.22
2023-10-18T05:38:54.065Z,56.57
2023-10-18T05:41:21.612Z,56.24
2023-10-18T05:43:49.169Z,54.70
2023-10-18T05:46:18.823Z,54.34
2023-10-18T05:48:46.550Z,53.84
2023-10-18T05:54:00.257Z,53.71
2023-10-18T05:56:31.180Z,54.79
2023-10-18T05:59:27.397Z,53.65
2023-10-18T06:02:02.425Z,53.78
2023-10-18T06:04:39.654Z,53.96
2023-10-18T06:07:14.395Z,54.47
2023-10-18T06:09:48.712Z,54.40
2023-10-18T06:12:43.669Z,54.59
2023-10-18T06:15:17.648Z,54.98
2023-10-18T06:17:50.233Z,53.88
2023-10-18T06:20:30.214Z,52.48
2023-10-18T06:23:29.516Z,52.84
2023-10-18T06:26:01.176Z,54.52
2023-10-18T06:28:32.120Z,53.28
2023-10-18T06:31:00.610Z,52.94
2023-10-18T06:33:36.517Z,53.03
2023-10-18T06:36:13.331Z,52.86
2023-10-18T06:38:43.602Z,52.95
2023-10-18T06:41:20.073Z,52.62
2023-10-18T06:43:49.653Z,52.41
2023-10-18T06:46:28.359Z,51.78
2023-10-18T06:49:11.622Z,50.71
2023-10-18T06:51:44.621Z,50.57
2023-10-18T06:54:15.696Z,48.40
2023-10-18T06:56:46.768Z,49.55
2023-10-18T06:59:14.775Z,49.61
2023-10-18T07:02:08.462Z,48.95
2023-10-18T07:04:39.524Z,49.05
2023-10-18T07:07:21.141Z,45.79
2023-10-18T07:09:56.263Z,43.85
2023-10-18T07:12:37.452Z,41.53
2023-10-18T07:15:10.636Z,40.37
2023-10-18T07:17:38.831Z,36.88
2023-10-18T07:20:16.784Z,36.01
2023-10-18T07:22:50.698Z,35.21
2023-10-18T07:25:22.603Z,38.81
2023-10-18T07:27:51.117Z,35.25
2023-10-18T07:30:18.821Z,34.12
2023-10-18T07:32:49.297Z,35.91
2023-10-18T07:35:32.055Z,33.69
2023-10-18T07:37:59.574Z,32.21
2023-10-18T07:40:34.558Z,30.86
2023-10-18T07:43:06.634Z,29.98
2023-10-18T07:45:34.162Z,30.83
2023-10-18T07:48:06.414Z,32.09
2023-10-18T07:50:43.192Z,29.84
2023-10-18T07:53:14.040Z,29.46
2023-10-18T07:55:49.746Z,29.02
2023-10-18T07:58:41.340Z,31.63
2023-10-18T08:01:10.850Z,29.06
2023-10-18T08:03:39.673Z,27.99
2023-10-18T08:06:27.380Z,27.05
2023-10-18T08:08:55.263Z,27.04
2023-10-18T08:11:25.132Z,24.45
2023-10-18T08:13:54.161Z,30.96
2023-10-18T08:16:22.313Z,28.26
2023-10-18T08:18:58.542Z,28.28
2023-10-18T08:21:49.251Z,27.25
2023-10-18T08:24:21.877Z,28.47
2023-10-18T08:26:49.693Z,27.62
2023-10-18T08:29:17.623Z,27.40
2023-10-18T08:31:49.637Z,26.34
2023-10-18T08:34:19.243Z,25.95
2023-10-18T08:36:47.021Z,26.74
2023-10-18T08:39:14.563Z,27.40
2023-10-18T08:42:00.646Z,24.15
2023-10-18T08:44:30.947Z,23.29
2023-10-18T08:47:10.129Z,22.91
2023-10-18T08:49:57.462Z,22.47
2023-10-18T08:52:25.400Z,22.36
2023-10-18T08:54:54.388Z,22.19
2023-10-18T08:57:37.301Z,21.30
2023-10-18T09:00:38.529Z,19.15
2023-10-18T09:03:08.791Z,21.59
2023-10-18T09:05:37.433Z,22.05
2023-10-18T09:08:06.289Z,23.06
2023-10-18T09:10:35.557Z,22.08
2023-10-18T09:13:19.408Z,20.39
2023-10-18T09:16:00.196Z,20.59
2023-10-18T09:18:32.279Z,22.17
2023-10-18T09:21:09.446Z,21.97
2023-10-18T09:23:37.277Z,22.88
2023-10-18T09:26:19.799Z,21.96
2023-10-18T09:28:48.081Z,21.73
2023-10-18T09:31:23.024Z,19.36
2023-10-18T09:33:53.635Z,23.03
2023-10-18T09:36:22.228Z,22.66
2023-10-18T09:38:51.339Z,22.22
2023-10-18T09:41:19.598Z,19.31
2023-10-18T09:43:50.417Z,20.15
2023-10-18T09:46:19.457Z,19.50
2023-10-18T09:48:48.133Z,21.79
2023-10-18T09:51:22.108Z,21.02
2023-10-18T09:53:55.553Z,22.84
2023-10-18T09:56:34.235Z,21.26
2023-10-18T09:59:06.893Z,20.50
2023-10-18T10:01:44.538Z,21.30
2023-10-18T10:04:15.769Z,19.68
2023-10-18T10:06:48.057Z,18.92
2023-10-18T10:09:17.095Z,20.09
2023-10-18T10:11:46.656Z,20.49
2023-10-18T10:14:18.738Z,20.51
2023-10-18T10:16:55.869Z,21.36
2023-10-18T10:19:30.345Z,20.88
2023-10-18T10:22:06.448Z,19.82
2023-10-18T10:24:56.236Z,19.28
2023-10-18T10:27:33.593Z,19.67
2023-10-18T10:30:20.879Z,21.15
2023-10-18T10:32:50.710Z,19.52
2023-10-18T10:35:25.335Z,18.54
2023-10-18T10:37:53.799Z,20.06
2023-10-18T10:40:29.708Z,20.51
2023-10-18T10:43:11.559Z,18.61
2023-10-18T10:45:55.136Z,20.21
2023-10-18T10:48:28.769Z,18.05
2023-10-18T10:51:21.354Z,20.07
2023-10-18T10:53:58.652Z,17.20
2023-10-18T10:56:34.171Z,17.42
2023-10-18T10:59:08.809Z,17.73
2023-10-18T11:01:58.524Z,17.57
2023-10-18T11:04:26.637Z,18.96
2023-10-18T11:06:59.379Z,18.91
2023-10-18T11:09:34.661Z,17.33
2023-10-18T11:12:11.768Z,17.35
2023-10-18T11:14:40.042Z,17.65
2023-10-18T11:17:17.219Z,18.31
2023-10-18T11:19:52.777Z,21.03
2023-10-18T11:22:23.701Z,19.53
2023-10-18T11:24:54.861Z,18.57
2023-10-18T11:27:26.990Z,18.52
2023-10-18T11:30:12.487Z,18.22
2023-10-18T11:32:42.021Z,18.22
2023-10-18T11:35:19.536Z,18.13
2023-10-18T11:37:49.160Z,19.35
2023-10-18T11:40:19.880Z,18.66
2023-10-18T11:43:10.132Z,19.22
2023-10-18T11:45:40.220Z,19.69
2023-10-18T11:48:11.369Z,17.69
2023-10-18T11:50:49.923Z,18.32
2023-10-18T11:53:21.608Z,21.99
2023-10-18T11:55:56.762Z,19.29
2023-10-18T11:58:29.951Z,18.27
2023-10-18T12:01:02.666Z,18.07
2023-10-18T12:03:30.957Z,17.00
2023-10-18T12:05:59.078Z,18.34
2023-10-18T12:08:31.464Z,17.41
2023-10-18T12:10:59.135Z,17.52
2023-10-18T12:13:27.834Z,18.34
2023-10-18T12:16:01.607Z,17.32
2023-10-18T12:18:30.354Z,19.21
2023-10-18T12:20:59.510Z,20.04
2023-10-18T12:23:27.575Z,19.59
2023-10-18T12:25:55.137Z,19.82
2023-10-18T12:28:36.899Z,19.17
2023-10-18T12:31:14.156Z,21.25
2023-10-18T12:33:42.179Z,20.32
2023-10-18T12:36:09.857Z,20.82
2023-10-18T12:38:39.607Z,21.47
2023-10-18T12:41:19.729Z,20.51
2023-10-18T12:43:47.720Z,21.20
2023-10-18T12:46:21.021Z,19.86
2023-10-18T12:48:51.298Z,19.86
2023-10-18T12:51:19.851Z,21.62
2023-10-18T12:58:31.525Z,24.31
2023-10-18T13:01:26.059Z,25.25
2023-10-18T13:04:00.163Z,25.42
2023-10-18T13:06:36.475Z,24.17
2023-10-18T13:09:24.926Z,24.17
2023-10-18T13:12:01.804Z,24.51
2023-10-18T13:14:33.108Z,23.22
2023-10-18T13:17:04.766Z,24.17
2023-10-18T13:19:33.454Z,23.85
2023-10-18T13:22:01.136Z,24.66
2023-10-18T13:24:32.583Z,26.61
2023-10-18T13:27:04.186Z,25.07
2023-10-18T13:29:32.563Z,25.41
2023-10-18T13:32:07.690Z,25.02
2023-10-18T13:34:38.263Z,26.36
2023-10-18T13:37:11.145Z,27.20
2023-10-18T13:39:43.466Z,26.22
2023-10-18T13:42:13.035Z,26.05
2023-10-18T13:44:42.659Z,28.79
2023-10-18T13:47:14.191Z,27.61
2023-10-18T13:49:43.315Z,29.14
2023-10-18T13:52:12.773Z,29.33
2023-10-18T13:54:42.348Z,28.12
2023-10-18T13:57:10.211Z,29.58
2023-10-18T13:59:39.504Z,30.91
2023-10-18T14:02:07.844Z,31.43
2023-10-18T14:04:36.808Z,31.14
2023-10-18T14:07:06.486Z,31.40
2023-10-18T14:09:35.891Z,30.85
2023-10-18T14:12:05.301Z,31.36
2023-10-18T14:14:34.473Z,32.43
2023-10-18T14:17:04.884Z,31.09
2023-10-18T14:19:34.058Z,30.72
2023-10-18T14:22:02.013Z,31.64
2023-10-18T14:24:30.765Z,31.87
2023-10-18T14:27:00.528Z,31.82
2023-10-18T14:29:28.679Z,32.31
2023-10-18T14:31:56.494Z,31.96
2023-10-18T14:34:24.315Z,32.65
2023-10-18T14:36:52.439Z,33.09
2023-10-18T14:41:54.116Z,33.12
2023-10-18T14:44:21.807Z,32.13
2023-10-18T14:46:49.400Z,33.00
2023-10-18T14:49:16.921Z,32.51
2023-10-18T14:51:45.686Z,33.41
2023-10-18T14:54:15.692Z,33.78
2023-10-18T14:56:44.223Z,33.77
2023-10-18T14:59:12.236Z,33.15
2023-10-18T15:01:40.876Z,33.46
2023-10-18T15:04:08.776Z,33.74
2023-10-18T15:06:38.775Z,34.30
2023-10-18T15:09:07.592Z,35.34
2023-10-18T15:11:35.424Z,34.72
2023-10-18T15:14:04.280Z,34.39
2023-10-18T15:16:32.142Z,35.36
2023-10-18T15:18:59.838Z,35.77
2023-10-18T15:21:27.957Z,35.68
2023-10-18T15:23:55.432Z,35.64
2023-10-18T15:26:27.418Z,37.29
2023-10-18T15:28:57.085Z,38.84
2023-10-18T15:31:24.824Z,39.02
2023-10-18T15:33:53.138Z,39.68
2023-10-18T15:36:24.641Z,39.73
2023-10-18T15:38:55.182Z,39.86
2023-10-18T15:41:24.766Z,39.69
2023-10-18T15:43:54.497Z,40.48
2023-10-18T15:46:30.628Z,41.36
2023-10-18T15:48:59.012Z,41.57
2023-10-18T15:51:28.767Z,41.34
2023-10-18T15:53:59.753Z,41.38
2023-10-18T15:56:29.783Z,41.19
2023-10-18T15:58:59.742Z,41.02
2023-10-18T16:01:31.057Z,41.25
2023-10-18T16:04:01.417Z,41.79
2023-10-18T16:06:30.278Z,42.08
2023-10-18T16:08:57.797Z,42.43
2023-10-18T16:11:25.396Z,42.67
2023-10-18T16:13:57.112Z,43.33
2023-10-18T16:16:27.487Z,44.25
2023-10-18T16:18:56.999Z,44.42
2023-10-18T16:21:25.413Z,44.39
2023-10-18T16:23:53.701Z,44.55
2023-10-18T16:26:23.637Z,44.45
2023-10-18T16:28:51.906Z,44.23
2023-10-18T16:31:22.870Z,45.08
2023-10-18T16:33:50.622Z,45.02
2023-10-18T16:36:19.332Z,45.48
2023-10-18T16:38:52.150Z,45.20
2023-10-18T16:41:20.406Z,46.61
2023-10-18T16:43:48.994Z,46.47
2023-10-18T16:46:17.995Z,46.65
2023-10-18T16:48:47.315Z,46.89
2023-10-18T16:51:17.772Z,48.82
2023-10-18T16:53:50.410Z,47.85
2023-10-18T16:56:18.509Z,47.71
2023-10-18T16:58:49.845Z,48.47
2023-10-18T17:01:20.076Z,49.75
2023-10-18T17:03:48.952Z,48.48
2023-10-18T17:06:17.725Z,48.12
2023-10-18T17:08:47.083Z,49.42
2023-10-18T17:11:15.976Z,49.40
2023-10-18T17:13:48.811Z,49.10
2023-10-18T17:16:18.487Z,48.47
2023-10-18T17:18:48.481Z,48.57
2023-10-18T17:21:20.652Z,48.37
2023-10-18T17:23:51.095Z,48.42
2023-10-18T17:26:19.257Z,48.64
2023-10-18T17:28:50.149Z,47.17
2023-10-18T17:31:23.766Z,46.83
2023-10-18T17:33:51.565Z,45.82
2023-10-18T17:36:20.258Z,46.22
2023-10-18T17:38:49.627Z,45.48
2023-10-18T17:41:17.485Z,44.82
2023-10-18T17:43:48.023Z,44.88
2023-10-18T17:46:16.731Z,45.71
2023-10-18T17:48:44.352Z,45.26
2023-10-18T17:51:12.978Z,44.47
2023-10-18T17:53:41.059Z,45.19
2023-10-18T17:56:11.770Z,44.73
2023-10-18T17:58:39.730Z,45.28
2023-10-18T18:01:07.668Z,45.67
2023-10-18T18:03:37.592Z,45.12
2023-10-18T18:06:09.562Z,45.85
2023-10-18T18:08:41.511Z,45.75
2023-10-18T18:11:09.444Z,45.19
2023-10-18T18:13:39.564Z,44.07
2023-10-18T18:16:17.912Z,43.79
2023-10-18T18:18:45.750Z,42.83
2023-10-18T18:21:13.842Z,43.09
2023-10-18T18:23:45.612Z,42.23
2023-10-18T18:26:15.972Z,41.96
2023-10-18T18:28:44.626Z,42.34
2023-10-18T18:31:14.722Z,42.53
2023-10-18T18:33:42.313Z,42.68
2023-10-18T18:36:10.295Z,42.73
2023-10-18T18:38:37.982Z,43.17
2023-10-18T18:41:09.507Z,43.64
2023-10-18T18:43:37.590Z,43.47
2023-10-18T18:46:05.160Z,44.06
2023-10-18T18:48:33.370Z,44.47
2023-10-18T18:51:05.347Z,44.76
2023-10-18T18:53:36.778Z,44.70
2023-10-18T18:56:09.281Z,44.21
2023-10-18T18:58:36.925Z,46.26
2023-10-18T19:01:05.230Z,46.51
2023-10-18T19:03:33.525Z,46.22
2023-10-18T19:06:06.433Z,46.46
2023-10-18T19:08:34.065Z,47.07
2023-10-18T19:11:01.929Z,47.87
2023-10-18T19:13:29.876Z,47.01
2023-10-18T19:16:07.028Z,46.14
2023-10-18T19:18:36.502Z,46.61
2023-10-18T19:21:10.460Z,46.64
2023-10-18T19:23:41.875Z,45.66
2023-10-18T19:26:13.392Z,44.34
2023-10-18T19:28:42.173Z,44.68
2023-10-18T19:31:17.878Z,44.90
2023-10-18T19:33:46.851Z,44.72
2023-10-18T19:36:16.625Z,44.60
2023-10-18T19:38:48.813Z,44.30
2023-10-18T19:41:18.548Z,44.01
2023-10-18T19:43:46.481Z,43.46
2023-10-18T19:46:14.439Z,43.44
2023-10-18T19:48:43.189Z,43.82
2023-10-18T19:51:16.033Z,43.48
2023-10-18T19:53:45.695Z,41.78
2023-10-18T19:56:14.807Z,42.04
2023-10-18T19:58:42.997Z,43.38
2023-10-18T20:01:10.621Z,42.81
2023-10-18T20:03:40.498Z,42.36
2023-10-18T20:06:08.688Z,42.88
2023-10-18T20:08:37.198Z,42.41
2023-10-18T20:11:06.958Z,42.23
2023-10-18T20:13:34.462Z,43.63
2023-10-18T20:16:02.641Z,43.65
2023-10-18T20:18:31.679Z,44.22
2023-10-18T20:21:00.454Z,46.18
2023-10-18T20:23:28.114Z,46.43
2023-10-18T20:26:06.555Z,48.09
2023-10-18T20:28:34.142Z,48.79
2023-10-18T20:31:02.369Z,49.37
2023-10-18T20:33:30.684Z,50.19
2023-10-18T20:35:58.968Z,50.09
2023-10-18T20:38:28.126Z,50.56
2023-10-18T20:40:55.814Z,50.39
2023-10-18T20:43:30.390Z,51.89
2023-10-18T20:46:13.395Z,51.79
2023-10-18T20:48:41.667Z,51.72
2023-10-18T20:51:11.625Z,53.31
2023-10-18T20:53:41.915Z,52.36
2023-10-18T20:56:09.720Z,52.06
2023-10-18T20:58:42.284Z,51.67
2023-10-18T21:01:29.081Z,51.49
2023-10-18T21:03:59.561Z,52.27
2023-10-18T21:06:31.560Z,52.96
2023-10-18T21:08:59.467Z,55.16
2023-10-18T21:11:27.049Z,53.41
2023-10-18T21:13:55.389Z,53.89
2023-10-18T21:16:23.163Z,53.18
2023-10-18T21:18:50.738Z,54.54
2023-10-18T21:21:19.664Z,53.39
2023-10-18T21:23:47.217Z,52.82
2023-10-18T21:26:15.056Z,54.29
2023-10-18T21:28:44.244Z,54.67
2023-10-18T21:31:14.640Z,53.86
2023-10-18T21:33:42.683Z,53.58
2023-10-18T21:36:12.700Z,53.72
2023-10-18T21:38:42.129Z,53.55
2023-10-18T21:41:19.880Z,52.31
2023-10-18T21:43:49.394Z,52.37
2023-10-18T21:46:17.687Z,51.69
2023-10-18T21:48:45.782Z,51.70
2023-10-18T21:51:14.688Z,50.93
2023-10-18T21:53:43.145Z,50.24
2023-10-18T21:56:14.905Z,49.67
2023-10-18T21:58:47.112Z,51.37
2023-10-18T22:01:34.526Z,50.55
2023-10-18T22:04:05.165Z,50.26
2023-10-18T22:06:35.379Z,50.99
2023-10-18T22:09:23.149Z,49.96
2023-10-18T22:11:52.248Z,50.04
2023-10-18T22:14:20.368Z,49.35
2023-10-18T22:16:54.386Z,49.15
2023-10-18T22:19:31.774Z,49.14
2023-10-18T22:22:12.481Z,51.03
2023-10-18T22:24:40.771Z,50.83
2023-10-18T22:27:15.801Z,51.06
2023-10-18T22:29:48.777Z,51.67
2023-10-18T22:32:25.589Z,49.50
2023-10-18T22:34:53.966Z,49.58
2023-10-18T22:37:23.116Z,49.07
2023-10-18T22:39:52.010Z,49.69
2023-10-18T22:42:39.958Z,49.37
2023-10-18T22:45:25.620Z,49.76
2023-10-18T22:47:53.798Z,48.76
2023-10-18T22:50:21.468Z,48.79
2023-10-18T22:52:53.223Z,48.86
2023-10-18T22:55:24.117Z,48.05
2023-10-18T22:58:00.869Z,47.66
2023-10-18T23:00:32.818Z,47.35
2023-10-18T23:03:11.151Z,46.28
2023-10-18T23:05:42.949Z,45.70
2023-10-18T23:08:22.079Z,45.96
2023-10-18T23:10:53.250Z,44.36
2023-10-18T23:13:46.606Z,43.55
2023-10-18T23:16:37.237Z,43.31
2023-10-18T23:19:11.596Z,42.11
2023-10-18T23:21:42.854Z,40.93
2023-10-18T23:24:16.557Z,42.04
2023-10-18T23:27:02.819Z,41.28
2023-10-18T23:29:40.884Z,41.83
2023-10-18T23:32:17.997Z,42.30
2023-10-18T23:34:51.767Z,42.44
2023-10-18T23:37:31.212Z,41.89
2023-10-18T23:39:58.871Z,41.77
2023-10-18T23:42:34.781Z,43.38
2023-10-18T23:45:22.607Z,42.38
2023-10-18T23:47:50.183Z,42.50
2023-10-18T23:50:36.506Z,43.44
2023-10-18T23:53:13.244Z,45.52
2023-10-18T23:55:52.965Z,44.70
2023-10-18T23:58:30.276Z,45.06
